createdAt,value
2023-01-20T00:01:38.552Z,9.37
2023-01-20T00:04:05.833Z,9.79
2023-01-20T00:06:32.607Z,10.17
2023-01-20T00:09:00.887Z,8.76
2023-01-20T00:11:30.625Z,8.88
2023-01-20T00:13:59.470Z,7.94
2023-01-20T00:16:27.360Z,8.46
2023-01-20T00:18:55.023Z,8.83
2023-01-20T00:21:21.724Z,8.62
2023-01-20T00:23:49.335Z,8.73
2023-01-20T00:26:21.788Z,9.56
2023-01-20T00:28:49.777Z,8.43
2023-01-20T00:31:29.595Z,8.87
2023-01-20T00:34:00.611Z,9.30
2023-01-20T00:36:29.714Z,10.02
2023-01-20T00:38:56.338Z,10.29
2023-01-20T00:41:23.332Z,11.06
2023-01-20T00:43:50.080Z,11.20
2023-01-20T00:46:17.105Z,11.64
2023-01-20T00:48:44.871Z,11.32
2023-01-20T00:51:12.003Z,11.51
2023-01-20T00:53:38.642Z,11.60
2023-01-20T00:56:06.049Z,12.07
2023-01-20T00:58:32.677Z,12.80
2023-01-20T01:00:59.879Z,12.20
2023-01-20T01:03:28.224Z,11.28
2023-01-20T01:05:55.126Z,10.74
2023-01-20T01:08:21.801Z,10.12
2023-01-20T01:10:48.394Z,10.19
2023-01-20T01:13:14.968Z,10.20
2023-01-20T01:15:49.781Z,9.71
2023-01-20T01:18:17.105Z,9.87
2023-01-20T01:20:44.883Z,9.55
2023-01-20T01:23:12.312Z,9.94
2023-01-20T01:25:38.936Z,10.19
2023-01-20T01:28:05.871Z,9.41
2023-01-20T01:30:32.522Z,9.75
2023-01-20T01:32:59.183Z,10.05
2023-01-20T01:35:25.810Z,10.36
2023-01-20T01:37:52.465Z,9.69
2023-01-20T01:40:19.183Z,9.84
2023-01-20T01:42:45.807Z,10.69
2023-01-20T01:45:12.925Z,10.95
2023-01-20T01:48:09.592Z,10.31
2023-01-20T01:50:39.215Z,10.66
2023-01-20T01:53:07.167Z,10.62
2023-01-20T01:55:39.690Z,10.74
2023-01-20T01:58:09.107Z,11.19
2023-01-20T02:00:36.241Z,10.55
2023-01-20T02:03:03.035Z,9.78
2023-01-20T02:05:30.964Z,10.17
2023-01-20T02:07:59.608Z,10.77
2023-01-20T02:10:26.437Z,9.88
2023-01-20T02:12:53.799Z,9.96
2023-01-20T02:15:26.425Z,10.22
2023-01-20T02:18:42.519Z,10.63
2023-01-20T02:21:23.365Z,11.12
2023-01-20T02:24:30.038Z,11.01
2023-01-20T02:27:25.704Z,11.12
2023-01-20T02:30:25.740Z,10.85
2023-01-20T02:33:07.423Z,11.16
2023-01-20T02:35:42.656Z,11.19
2023-01-20T02:38:21.309Z,11.33
2023-01-20T02:41:09.360Z,11.53
2023-01-20T02:43:47.272Z,11.19
2023-01-20T02:46:36.264Z,11.35
2023-01-20T02:49:25.056Z,11.28
2023-01-20T02:52:01.459Z,11.52
2023-01-20T02:54:32.902Z,11.00
2023-01-20T02:57:02.465Z,11.19
2023-01-20T02:59:37.188Z,11.30
2023-01-20T03:02:10.224Z,11.38
2023-01-20T03:04:45.496Z,11.35
2023-01-20T03:07:14.150Z,10.89
2023-01-20T03:09:47.579Z,11.20
2023-01-20T03:12:19.418Z,11.06
2023-01-20T03:14:46.049Z,10.94
2023-01-20T03:17:12.745Z,10.62
2023-01-20T03:19:39.376Z,10.76
2023-01-20T03:22:06.495Z,10.92
2023-01-20T03:24:34.859Z,10.88
2023-01-20T03:27:01.806Z,10.14
2023-01-20T03:29:30.652Z,8.71
2023-01-20T03:31:59.877Z,9.87
2023-01-20T03:34:31.806Z,9.43
2023-01-20T03:37:00.635Z,9.21
2023-01-20T03:39:27.959Z,9.26
2023-01-20T03:42:14.424Z,9.41
2023-01-20T03:45:05.373Z,10.17
2023-01-20T03:47:44.035Z,9.07
2023-01-20T03:50:26.258Z,9.70
2023-01-20T03:53:04.487Z,10.26
2023-01-20T03:55:57.530Z,10.66
2023-01-20T03:58:30.543Z,10.86
2023-01-20T04:00:58.051Z,10.93
2023-01-20T04:03:32.852Z,10.84
2023-01-20T04:06:02.975Z,11.03
2023-01-20T04:08:36.819Z,10.75
2023-01-20T04:11:06.822Z,10.74
2023-01-20T04:13:34.023Z,10.71
2023-01-20T04:16:03.217Z,10.63
2023-01-20T04:18:29.950Z,10.84
2023-01-20T04:21:02.520Z,11.18
2023-01-20T04:23:36.998Z,11.15
2023-01-20T04:26:03.643Z,11.24
2023-01-20T04:28:30.247Z,11.18
2023-01-20T04:30:56.969Z,11.28
2023-01-20T04:33:23.749Z,11.24
2023-01-20T04:35:50.357Z,11.35
2023-01-20T04:38:16.947Z,11.24
2023-01-20T04:40:43.568Z,11.11
2023-01-20T04:43:10.291Z,10.64
2023-01-20T04:45:36.901Z,10.60
2023-01-20T04:48:10.046Z,10.44
2023-01-20T04:50:40.814Z,10.78
2023-01-20T04:53:07.872Z,10.31
2023-01-20T04:55:34.534Z,10.32
2023-01-20T04:58:01.156Z,10.37
2023-01-20T05:00:28.577Z,10.36
2023-01-20T05:02:59.024Z,10.36
2023-01-20T05:05:25.837Z,10.25
2023-01-20T05:07:53.496Z,10.43
2023-01-20T05:10:20.644Z,10.60
2023-01-20T05:12:47.573Z,10.26
2023-01-20T05:15:14.591Z,10.40
2023-01-20T05:17:41.432Z,10.63
2023-01-20T05:20:08.791Z,10.75
2023-01-20T05:22:35.377Z,10.86
2023-01-20T05:25:02.442Z,11.15
2023-01-20T05:27:29.063Z,10.91
2023-01-20T05:29:55.647Z,10.82
2023-01-20T05:32:22.232Z,10.74
2023-01-20T05:34:48.792Z,10.38
2023-01-20T05:37:18.123Z,9.99
2023-01-20T05:39:44.720Z,10.15
2023-01-20T05:42:11.452Z,10.55
2023-01-20T05:44:38.060Z,9.51
2023-01-20T05:47:04.751Z,9.60
2023-01-20T05:49:31.307Z,9.07
2023-01-20T05:51:57.918Z,8.51
2023-01-20T05:54:24.616Z,9.68
2023-01-20T05:56:51.181Z,10.28
2023-01-20T05:59:17.863Z,10.62
2023-01-20T06:01:44.477Z,10.92
2023-01-20T06:04:11.093Z,11.02
2023-01-20T06:06:37.929Z,11.21
2023-01-20T06:09:04.496Z,10.26
2023-01-20T06:11:31.053Z,10.45
2023-01-20T06:13:57.661Z,9.59
2023-01-20T06:16:24.305Z,8.94
2023-01-20T06:18:50.913Z,9.79
2023-01-20T06:21:17.555Z,10.40
2023-01-20T06:23:44.297Z,10.24
2023-01-20T06:26:13.654Z,10.19
2023-01-20T06:28:40.317Z,10.03
2023-01-20T06:31:09.675Z,10.74
2023-01-20T06:33:36.598Z,10.71
2023-01-20T06:36:03.961Z,10.80
2023-01-20T06:38:32.767Z,10.70
2023-01-20T06:41:04.375Z,10.49
2023-01-20T06:43:32.665Z,10.38
2023-01-20T06:46:05.343Z,10.41
2023-01-20T06:48:32.791Z,9.91
2023-01-20T06:51:08.467Z,10.08
2023-01-20T06:53:35.051Z,10.63
2023-01-20T06:56:02.294Z,9.97
2023-01-20T06:58:31.144Z,9.98
2023-01-20T07:01:03.746Z,10.54
2023-01-20T07:03:30.542Z,10.77
2023-01-20T07:06:03.116Z,10.85
2023-01-20T07:08:30.528Z,11.18
2023-01-20T07:10:57.326Z,11.17
2023-01-20T07:13:23.891Z,11.29
2023-01-20T07:15:50.520Z,11.16
2023-01-20T07:18:17.061Z,10.61
2023-01-20T07:20:43.852Z,10.91
2023-01-20T07:23:10.526Z,10.54
2023-01-20T07:25:38.397Z,10.63
2023-01-20T07:28:05.227Z,10.16
2023-01-20T07:30:31.875Z,10.14
2023-01-20T07:32:58.448Z,10.43
2023-01-20T07:35:25.007Z,10.19
2023-01-20T07:37:51.561Z,10.45
2023-01-20T07:40:18.643Z,10.59
2023-01-20T07:42:45.267Z,10.16
2023-01-20T07:45:11.978Z,10.81
2023-01-20T07:47:38.692Z,11.12
2023-01-20T07:50:05.877Z,11.14
2023-01-20T07:52:32.499Z,11.18
2023-01-20T07:54:59.093Z,11.28
2023-01-20T07:57:25.665Z,10.11
2023-01-20T07:59:52.233Z,9.28
2023-01-20T08:02:18.798Z,9.01
2023-01-20T08:04:45.431Z,9.27
2023-01-20T08:07:12.024Z,9.68
2023-01-20T08:09:40.575Z,10.12
2023-01-20T08:12:07.324Z,9.76
2023-01-20T08:14:35.172Z,9.30
2023-01-20T08:17:03.637Z,10.05
2023-01-20T08:19:30.173Z,10.43
2023-01-20T08:21:56.855Z,10.78
2023-01-20T08:24:23.421Z,11.03
2023-01-20T08:26:51.554Z,11.06
2023-01-20T08:29:18.143Z,10.77
2023-01-20T08:31:45.202Z,10.61
2023-01-20T08:34:12.430Z,10.67
2023-01-20T08:36:41.307Z,11.09
2023-01-20T08:39:10.342Z,10.51
2023-01-20T08:41:38.892Z,10.77
2023-01-20T08:44:07.702Z,11.01
2023-01-20T08:46:35.006Z,10.68
2023-01-20T08:49:01.634Z,11.07
2023-01-20T08:51:32.120Z,11.11
2023-01-20T08:53:59.279Z,11.28
2023-01-20T08:56:26.830Z,11.36
2023-01-20T08:58:54.332Z,11.69
2023-01-20T09:01:26.645Z,11.87
2023-01-20T09:04:04.837Z,11.63
2023-01-20T09:06:48.674Z,10.92
2023-01-20T09:09:17.865Z,10.87
2023-01-20T09:11:51.330Z,10.89
2023-01-20T09:14:22.969Z,11.08
2023-01-20T09:16:49.868Z,10.94
2023-01-20T09:19:17.406Z,11.13
2023-01-20T09:21:44.452Z,10.63
2023-01-20T09:24:11.141Z,10.69
2023-01-20T09:26:40.524Z,10.82
2023-01-20T09:29:15.705Z,11.28
2023-01-20T09:31:45.884Z,11.36
2023-01-20T09:34:19.317Z,11.87
2023-01-20T09:36:46.314Z,11.40
2023-01-20T09:39:32.851Z,11.40
2023-01-20T09:42:22.855Z,11.78
2023-01-20T09:45:22.778Z,11.29
2023-01-20T09:47:49.640Z,10.09
2023-01-20T09:50:44.387Z,11.20
2023-01-20T09:53:21.765Z,10.63
2023-01-20T09:55:57.740Z,10.79
2023-01-20T09:59:01.571Z,10.55
2023-01-20T10:01:36.559Z,10.52
2023-01-20T10:04:10.216Z,11.44
2023-01-20T10:06:43.212Z,11.78
2023-01-20T10:09:29.060Z,11.78
2023-01-20T10:12:18.187Z,12.10
2023-01-20T10:14:58.505Z,12.15
2023-01-20T10:17:57.282Z,11.36
2023-01-20T10:20:46.577Z,11.97
2023-01-20T10:23:51.918Z,12.30
2023-01-20T10:26:28.877Z,12.30
2023-01-20T10:29:04.052Z,12.15
2023-01-20T10:31:38.993Z,12.16
2023-01-20T10:34:15.915Z,12.13
2023-01-20T10:36:46.989Z,12.07
2023-01-20T10:39:32.683Z,11.92
2023-01-20T10:42:09.758Z,11.90
2023-01-20T10:44:36.534Z,11.85
2023-01-20T10:47:17.828Z,12.03
2023-01-20T10:49:52.690Z,12.04
2023-01-20T10:52:28.155Z,11.90
2023-01-20T10:55:01.075Z,11.77
2023-01-20T10:57:28.230Z,11.68
2023-01-20T11:00:00.902Z,11.51
2023-01-20T11:02:35.136Z,11.64
2023-01-20T11:05:24.411Z,11.48
2023-01-20T11:07:53.886Z,11.19
2023-01-20T11:10:29.309Z,10.96
2023-01-20T11:12:59.715Z,10.49
2023-01-20T11:15:33.624Z,10.48
2023-01-20T11:18:15.457Z,10.36
2023-01-20T11:20:54.048Z,10.09
2023-01-20T11:23:40.854Z,9.75
2023-01-20T11:26:21.346Z,9.54
2023-01-20T11:28:57.105Z,9.26
2023-01-20T11:31:44.284Z,9.13
2023-01-20T11:34:34.179Z,8.90
2023-01-20T11:37:06.989Z,9.20
2023-01-20T11:39:35.122Z,8.90
2023-01-20T11:42:14.435Z,8.59
2023-01-20T11:44:44.429Z,7.77
2023-01-20T11:47:17.033Z,7.54
2023-01-20T11:49:43.636Z,7.65
2023-01-20T11:52:20.960Z,8.05
2023-01-20T11:54:48.068Z,7.71
2023-01-20T11:57:17.279Z,7.48
2023-01-20T11:59:49.565Z,7.26
2023-01-20T12:02:24.871Z,7.08
2023-01-20T12:05:16.145Z,7.23
2023-01-20T12:07:46.424Z,7.49
2023-01-20T12:10:25.849Z,6.60
2023-01-20T12:13:00.098Z,6.59
2023-01-20T12:15:31.925Z,6.76
2023-01-20T12:18:01.083Z,6.87
2023-01-20T12:20:27.926Z,6.95
2023-01-20T12:22:59.177Z,6.95
2023-01-20T12:25:33.954Z,7.31
2023-01-20T12:28:10.140Z,7.51
2023-01-20T12:30:42.913Z,7.80
2023-01-20T12:33:22.811Z,7.11
2023-01-20T12:36:09.644Z,6.72
2023-01-20T12:38:47.341Z,6.79
2023-01-20T12:41:26.527Z,6.80
2023-01-20T12:44:17.892Z,6.24
2023-01-20T12:47:23.053Z,6.13
2023-01-20T12:49:52.220Z,6.08
2023-01-20T12:52:32.426Z,5.81
2023-01-20T12:55:26.614Z,5.84
2023-01-20T12:58:15.345Z,5.86
2023-01-20T13:00:47.766Z,5.98
2023-01-20T13:04:05.084Z,5.79
2023-01-20T13:06:47.246Z,5.98
2023-01-20T13:09:43.933Z,5.83
2023-01-20T13:12:39.504Z,6.16
2023-01-20T13:15:18.535Z,6.31
2023-01-20T13:18:07.388Z,6.00
2023-01-20T13:20:38.334Z,5.70
2023-01-20T13:23:06.692Z,5.74
2023-01-20T13:25:35.275Z,6.06
2023-01-20T13:28:03.184Z,6.41
2023-01-20T13:30:51.658Z,5.84
2023-01-20T13:33:34.041Z,5.60
2023-01-20T13:36:27.018Z,5.92
2023-01-20T13:39:31.469Z,6.01
2023-01-20T13:41:58.080Z,6.40
2023-01-20T13:44:39.914Z,6.76
2023-01-20T13:47:11.378Z,7.04
2023-01-20T13:49:43.799Z,7.62
2023-01-20T13:52:11.926Z,7.63
2023-01-20T13:54:43.338Z,7.52
2023-01-20T13:57:23.378Z,7.07
2023-01-20T13:59:50.371Z,7.74
2023-01-20T14:02:28.642Z,7.63
2023-01-20T14:04:56.300Z,7.38
2023-01-20T14:07:30.041Z,7.40
2023-01-20T14:09:59.712Z,8.03
2023-01-20T14:12:26.893Z,7.79
2023-01-20T14:14:54.643Z,7.74
2023-01-20T14:17:24.782Z,7.91
2023-01-20T14:19:54.238Z,7.63
2023-01-20T14:22:25.046Z,7.87
2023-01-20T14:24:54.409Z,7.79
2023-01-20T14:27:28.373Z,7.60
2023-01-20T14:30:19.443Z,7.14
2023-01-20T14:32:49.080Z,6.90
2023-01-20T14:35:33.635Z,6.57
2023-01-20T14:38:00.989Z,7.11
2023-01-20T14:40:31.231Z,6.67
2023-01-20T14:43:02.227Z,6.46
2023-01-20T14:45:32.077Z,6.14
2023-01-20T14:48:02.159Z,6.41
2023-01-20T14:50:29.076Z,6.30
2023-01-20T14:52:56.334Z,6.14
2023-01-20T14:55:30.201Z,6.04
2023-01-20T14:57:57.143Z,6.20
2023-01-20T15:00:28.371Z,6.56
2023-01-20T15:03:19.485Z,6.73
2023-01-20T15:06:17.117Z,5.87
2023-01-20T15:09:04.334Z,5.93
2023-01-20T15:11:33.499Z,5.59
2023-01-20T15:14:04.972Z,6.23
2023-01-20T15:16:43.970Z,6.16
2023-01-20T15:19:13.374Z,5.80
2023-01-20T15:22:01.030Z,6.08
2023-01-20T15:24:32.598Z,5.61
2023-01-20T15:27:01.428Z,5.48
2023-01-20T15:29:34.052Z,5.36
2023-01-20T15:32:03.149Z,4.90
2023-01-20T15:34:29.958Z,5.39
2023-01-20T15:36:56.903Z,5.81
2023-01-20T15:39:26.114Z,5.79
2023-01-20T15:41:55.555Z,5.23
2023-01-20T15:44:24.406Z,5.33
2023-01-20T15:46:52.155Z,5.68
2023-01-20T15:49:19.265Z,5.23
2023-01-20T15:51:46.565Z,4.50
2023-01-20T15:54:16.308Z,5.02
2023-01-20T15:56:43.593Z,4.77
2023-01-20T15:59:15.672Z,5.02
2023-01-20T16:01:42.983Z,4.88
2023-01-20T16:04:09.615Z,5.10
2023-01-20T16:06:37.606Z,5.29
2023-01-20T16:09:16.886Z,5.98
2023-01-20T16:11:43.540Z,5.33
2023-01-20T16:14:10.135Z,5.28
2023-01-20T16:16:36.804Z,5.40
2023-01-20T16:19:04.729Z,5.45
2023-01-20T16:21:31.844Z,6.34
2023-01-20T16:23:59.039Z,5.19
2023-01-20T16:26:28.735Z,5.04
2023-01-20T16:28:57.685Z,5.07
2023-01-20T16:31:25.939Z,5.06
2023-01-20T16:33:53.336Z,5.11
2023-01-20T16:36:21.559Z,5.14
2023-01-20T16:38:49.262Z,5.20
2023-01-20T16:41:24.054Z,5.13
2023-01-20T16:43:52.696Z,5.53
2023-01-20T16:46:23.584Z,5.50
2023-01-20T16:48:50.922Z,6.03
2023-01-20T16:51:22.735Z,6.01
2023-01-20T16:53:49.403Z,6.21
2023-01-20T16:56:21.963Z,6.06
2023-01-20T16:58:50.269Z,6.38
2023-01-20T17:01:21.206Z,5.91
2023-01-20T17:03:48.379Z,5.26
2023-01-20T17:06:18.175Z,5.46
2023-01-20T17:08:51.029Z,5.36
2023-01-20T17:11:22.340Z,5.21
2023-01-20T17:13:49.404Z,5.42
2023-01-20T17:16:16.894Z,5.89
2023-01-20T17:18:46.540Z,6.32
2023-01-20T17:21:14.336Z,6.79
2023-01-20T17:23:41.467Z,6.99
2023-01-20T17:26:09.505Z,7.04
2023-01-20T17:28:36.168Z,7.51
2023-01-20T17:31:06.553Z,6.69
2023-01-20T17:33:33.624Z,6.72
2023-01-20T17:36:05.869Z,5.62
2023-01-20T17:38:34.564Z,6.09
2023-01-20T17:41:02.786Z,5.87
2023-01-20T17:43:34.210Z,5.69
2023-01-20T17:46:02.267Z,5.75
2023-01-20T17:48:29.313Z,6.19
2023-01-20T17:50:59.456Z,6.49
2023-01-20T17:53:26.716Z,6.38
2023-01-20T17:56:06.633Z,5.90
2023-01-20T17:58:37.886Z,5.70
2023-01-20T18:01:19.056Z,5.80
2023-01-20T18:03:47.387Z,5.81
2023-01-20T18:06:16.030Z,5.81
2023-01-20T18:08:44.293Z,5.91
2023-01-20T18:11:15.095Z,5.61
2023-01-20T18:13:42.367Z,5.96
2023-01-20T18:16:11.781Z,5.64
2023-01-20T18:18:39.562Z,4.97
2023-01-20T18:21:20.330Z,5.57
2023-01-20T18:23:48.692Z,5.04
2023-01-20T18:26:18.792Z,5.45
2023-01-20T18:28:47.997Z,5.54
2023-01-20T18:31:19.984Z,5.90
2023-01-20T18:33:49.406Z,6.44
2023-01-20T18:36:24.656Z,5.50
2023-01-20T18:39:02.217Z,5.58
2023-01-20T18:41:30.647Z,5.06
2023-01-20T18:43:57.868Z,5.21
2023-01-20T18:46:25.649Z,5.60
2023-01-20T18:48:54.796Z,5.25
2023-01-20T18:51:23.892Z,5.73
2023-01-20T18:53:59.746Z,6.00
2023-01-20T18:56:27.976Z,5.98
2023-01-20T18:58:55.948Z,5.92
2023-01-20T19:01:32.561Z,5.47
2023-01-20T19:04:00.223Z,5.55
2023-01-20T19:06:34.429Z,5.45
2023-01-20T19:09:02.362Z,5.67
2023-01-20T19:11:31.686Z,5.86
2023-01-20T19:13:59.109Z,5.70
2023-01-20T19:16:28.412Z,5.72
2023-01-20T19:18:57.488Z,5.81
2023-01-20T19:21:26.003Z,6.22
2023-01-20T19:23:55.643Z,6.04
2023-01-20T19:26:24.849Z,6.29
2023-01-20T19:29:02.739Z,6.38
2023-01-20T19:31:32.095Z,6.53
2023-01-20T19:33:59.274Z,6.50
2023-01-20T19:36:26.220Z,6.57
2023-01-20T19:38:52.889Z,6.28
2023-01-20T19:41:28.225Z,6.60
2023-01-20T19:43:58.416Z,5.81
2023-01-20T19:46:27.676Z,6.17
2023-01-20T19:48:56.584Z,5.55
2023-01-20T19:51:23.779Z,5.42
2023-01-20T19:53:55.685Z,5.97
2023-01-20T19:56:22.323Z,5.97
2023-01-20T19:58:48.990Z,5.37
2023-01-20T20:01:20.095Z,5.88
2023-01-20T20:03:47.384Z,5.64
2023-01-20T20:06:37.951Z,6.10
2023-01-20T20:09:10.451Z,6.13
2023-01-20T20:11:38.986Z,6.09
2023-01-20T20:14:08.872Z,5.77
2023-01-20T20:16:38.411Z,5.31
2023-01-20T20:19:07.546Z,4.85
2023-01-20T20:21:35.109Z,4.95
2023-01-20T20:24:03.243Z,5.30
2023-01-20T20:26:32.225Z,5.07
2023-01-20T20:29:00.237Z,4.72
2023-01-20T20:31:29.578Z,4.96
2023-01-20T20:34:00.665Z,4.86
2023-01-20T20:36:33.505Z,5.24
2023-01-20T20:39:02.591Z,4.87
2023-01-20T20:41:31.719Z,4.92
2023-01-20T20:44:00.402Z,4.85
2023-01-20T20:46:28.390Z,5.27
2023-01-20T20:48:56.627Z,5.78
2023-01-20T20:51:26.265Z,5.52
2023-01-20T20:53:57.845Z,5.37
2023-01-20T20:56:27.911Z,5.59
2023-01-20T20:59:01.412Z,5.99
2023-01-20T21:01:30.240Z,5.71
2023-01-20T21:03:58.188Z,5.23
2023-01-20T21:06:25.676Z,5.64
2023-01-20T21:08:53.065Z,5.88
2023-01-20T21:11:24.134Z,5.77
2023-01-20T21:13:51.750Z,5.59
2023-01-20T21:16:22.221Z,5.46
2023-01-20T21:18:50.193Z,5.00
2023-01-20T21:21:19.937Z,5.39
2023-01-20T21:23:55.319Z,5.34
2023-01-20T21:26:23.837Z,5.49
2023-01-20T21:28:50.452Z,5.53
2023-01-20T21:31:21.043Z,5.93
2023-01-20T21:33:53.635Z,6.09
2023-01-20T21:36:21.561Z,6.25
2023-01-20T21:38:51.075Z,6.46
2023-01-20T21:41:19.217Z,6.26
2023-01-20T21:44:05.958Z,6.00
2023-01-20T21:46:40.355Z,5.93
2023-01-20T21:49:27.339Z,5.95
2023-01-20T21:52:13.504Z,5.76
2023-01-20T21:54:41.440Z,6.03
2023-01-20T21:57:08.335Z,5.06
2023-01-20T21:59:34.926Z,4.78
2023-01-20T22:02:02.449Z,4.53
2023-01-20T22:04:29.130Z,5.20
2023-01-20T22:06:55.810Z,4.40
2023-01-20T22:09:22.443Z,4.54
2023-01-20T22:11:49.564Z,4.30
2023-01-20T22:14:18.104Z,4.53
2023-01-20T22:16:49.716Z,5.15
2023-01-20T22:19:16.710Z,5.19
2023-01-20T22:21:43.348Z,6.00
2023-01-20T22:24:10.791Z,4.69
2023-01-20T22:26:37.598Z,4.99
2023-01-20T22:29:04.301Z,5.60
2023-01-20T22:31:32.035Z,5.67
2023-01-20T22:34:04.198Z,6.47
2023-01-20T22:36:31.118Z,5.99
2023-01-20T22:38:57.749Z,5.71
2023-01-20T22:41:24.414Z,6.14
2023-01-20T22:43:51.453Z,6.28
2023-01-20T22:46:20.621Z,6.36
2023-01-20T22:48:47.849Z,6.52
2023-01-20T22:51:20.323Z,6.53
2023-01-20T22:53:47.512Z,6.59
2023-01-20T22:56:20.190Z,5.96
2023-01-20T22:58:47.278Z,5.16
2023-01-20T23:01:15.265Z,5.63
2023-01-20T23:03:42.217Z,6.34
2023-01-20T23:06:09.813Z,6.73
2023-01-20T23:08:37.092Z,5.85
2023-01-20T23:11:08.046Z,6.14
2023-01-20T23:13:41.287Z,6.46
2023-01-20T23:16:13.643Z,5.18
2023-01-20T23:18:40.291Z,5.55
2023-01-20T23:21:07.041Z,5.65
2023-01-20T23:23:33.808Z,6.54
2023-01-20T23:26:21.400Z,6.65
2023-01-20T23:28:50.404Z,6.75
2023-01-20T23:31:18.329Z,6.54
2023-01-20T23:33:45.136Z,6.63
2023-01-20T23:36:14.590Z,5.88
2023-01-20T23:38:42.227Z,6.24
2023-01-20T23:41:09.054Z,5.91
2023-01-20T23:43:35.795Z,6.43
2023-01-20T23:46:05.085Z,6.40
2023-01-20T23:48:32.437Z,5.97
2023-01-20T23:51:02.791Z,6.08
2023-01-20T23:53:31.324Z,5.73
2023-01-20T23:56:07.664Z,5.71
2023-01-20T23:58:34.291Z,4.90
